Terminal Aerodrome Forecast
Issued by NWS

Home | Current Version | Previous Version | Text Only | Print | Product List | Glossary Off
Versions: 1 2 3 4 5 6 7 8 9 10 11 12 13 14 15 16 17 18 19 20 21 22 23 24 25 26 27 28

000
FTUS43 KLOT 210539
TAFORD
TAF
KORD 210539Z 2106/2212 18010KT P6SM VCTS BKN045CB BKN090
     FM210700 16005KT P6SM BKN040
     FM211700 20008KT P6SM VCSH BKN045 BKN100
     FM212000 19009KT P6SM SCT050 BKN150
     FM220600 21009KT P6SM VCTS BKN050CB
     FM220800 23009KT 3SM TSRA OVC025CB=

USA.gov is the U.S. government's official web portal to all federal, state and local government web resources and services.